createdAt,value
2023-02-12T00:02:11.393Z,5.00
2023-02-12T00:06:33.301Z,5.00
2023-02-12T00:10:59.029Z,5.00
2023-02-12T00:15:23.589Z,5.00
2023-02-12T00:19:48.564Z,5.00
2023-02-12T00:24:10.560Z,5.00
2023-02-12T00:28:32.538Z,5.10
2023-02-12T00:32:55.082Z,5.00
2023-02-12T00:37:17.929Z,5.00
2023-02-12T00:41:39.941Z,5.00
2023-02-12T00:46:02.614Z,5.10
2023-02-12T00:50:25.051Z,5.10
2023-02-12T00:54:47.385Z,5.10
2023-02-12T00:59:09.461Z,5.10
2023-02-12T01:03:34.200Z,5.10
2023-02-12T01:07:57.263Z,5.10
2023-02-12T01:12:19.568Z,5.10
2023-02-12T01:16:41.906Z,5.10
2023-02-12T01:21:17.507Z,5.20
2023-02-12T01:25:39.798Z,5.20
2023-02-12T01:30:02.184Z,5.20
2023-02-12T01:34:24.159Z,5.20
2023-02-12T01:38:48.546Z,5.20
2023-02-12T01:43:13.825Z,5.20
2023-02-12T01:47:35.670Z,5.20
2023-02-12T01:52:32.133Z,5.20
2023-02-12T01:56:54.506Z,5.10
2023-02-12T02:01:25.420Z,5.20
2023-02-12T02:06:00.426Z,5.10
2023-02-12T02:10:22.613Z,5.10
2023-02-12T02:14:45.803Z,5.10
2023-02-12T02:19:28.754Z,5.10
2023-02-12T02:24:08.305Z,5.10
2023-02-12T02:28:58.148Z,5.10
2023-02-12T02:33:33.925Z,5.10
2023-02-12T02:38:23.641Z,5.10
2023-02-12T02:43:19.504Z,5.10
2023-02-12T02:48:02.420Z,5.10
2023-02-12T02:52:46.046Z,5.10
2023-02-12T02:57:20.000Z,5.10
2023-02-12T03:01:56.172Z,5.10
2023-02-12T03:06:46.563Z,5.10
2023-02-12T03:11:19.540Z,5.10
2023-02-12T03:16:06.023Z,5.10
2023-02-12T03:20:41.672Z,5.10
2023-02-12T03:25:15.543Z,5.10
2023-02-12T03:29:37.942Z,5.10
2023-02-12T03:34:44.848Z,5.10
2023-02-12T03:39:37.644Z,5.10
2023-02-12T03:44:36.306Z,5.20
2023-02-12T03:49:15.649Z,5.20
2023-02-12T03:53:38.027Z,5.20
2023-02-12T03:58:03.571Z,5.20
2023-02-12T04:02:25.844Z,5.20
2023-02-12T04:06:50.282Z,5.30
2023-02-12T04:11:26.182Z,5.30
2023-02-12T04:16:04.124Z,5.30
2023-02-12T04:21:19.278Z,5.30
2023-02-12T04:25:53.971Z,5.30
2023-02-12T04:30:24.375Z,5.30
2023-02-12T04:35:25.982Z,5.30
2023-02-12T04:39:50.109Z,5.30
2023-02-12T04:44:27.326Z,5.20
2023-02-12T04:48:59.055Z,5.20
2023-02-12T04:53:21.064Z,5.30
2023-02-12T04:57:43.251Z,5.30
2023-02-12T05:02:05.506Z,5.30
2023-02-12T05:06:27.665Z,5.30
2023-02-12T05:10:49.984Z,5.30
2023-02-12T05:15:12.345Z,5.30
2023-02-12T05:19:34.463Z,5.30
2023-02-12T05:23:56.350Z,5.30
2023-02-12T05:28:18.280Z,5.30
2023-02-12T05:32:41.755Z,5.30
2023-02-12T05:37:03.968Z,5.30
2023-02-12T05:41:26.339Z,5.30
2023-02-12T05:45:48.424Z,5.30
2023-02-12T05:50:11.284Z,5.30
2023-02-12T05:54:33.120Z,5.40
2023-02-12T05:59:07.670Z,5.30
2023-02-12T06:03:29.680Z,5.30
2023-02-12T06:07:51.560Z,5.30
2023-02-12T06:12:13.680Z,5.20
2023-02-12T06:16:36.238Z,5.20
2023-02-12T06:20:58.507Z,5.30
2023-02-12T06:25:21.418Z,5.30
2023-02-12T06:29:43.587Z,5.30
2023-02-12T06:34:10.377Z,5.30
2023-02-12T06:38:34.990Z,5.30
2023-02-12T06:42:56.991Z,5.30
2023-02-12T06:47:18.885Z,5.30
2023-02-12T06:51:41.931Z,5.30
2023-02-12T06:56:07.265Z,5.30
2023-02-12T07:00:29.278Z,5.40
2023-02-12T07:04:51.768Z,5.40
2023-02-12T07:09:13.823Z,5.40
2023-02-12T07:13:36.424Z,5.40
2023-02-12T07:17:58.384Z,5.40
2023-02-12T07:22:22.366Z,5.50
2023-02-12T07:26:44.734Z,5.60
2023-02-12T07:31:18.956Z,5.70
2023-02-12T07:35:41.407Z,5.80
2023-02-12T07:40:04.004Z,5.90
2023-02-12T07:44:26.211Z,5.90
2023-02-12T07:48:49.026Z,5.90
2023-02-12T07:53:11.267Z,6.00
2023-02-12T07:57:34.936Z,6.00
2023-02-12T08:01:57.373Z,6.10
2023-02-12T08:06:23.692Z,6.10
2023-02-12T08:10:45.508Z,6.20
2023-02-12T08:15:08.216Z,6.20
2023-02-12T08:19:30.478Z,6.30
2023-02-12T08:23:55.878Z,6.40
2023-02-12T08:28:17.808Z,6.50
2023-02-12T08:32:39.714Z,6.50
2023-02-12T08:37:02.108Z,6.60
2023-02-12T08:41:28.333Z,6.60
2023-02-12T08:45:50.481Z,6.50
2023-02-12T08:50:12.969Z,6.60
2023-02-12T08:54:35.280Z,6.60
2023-02-12T08:59:02.150Z,6.70
2023-02-12T09:03:23.930Z,6.80
2023-02-12T09:07:46.118Z,6.80
2023-02-12T09:12:08.078Z,6.80
2023-02-12T09:16:36.230Z,6.70
2023-02-12T09:21:08.642Z,6.80
2023-02-12T09:25:30.741Z,6.80
2023-02-12T09:29:52.760Z,6.80
2023-02-12T09:34:14.680Z,6.90
2023-02-12T09:38:37.097Z,6.90
2023-02-12T09:43:03.873Z,7.00
2023-02-12T09:47:47.078Z,7.20
2023-02-12T09:52:19.744Z,7.40
2023-02-12T09:56:50.031Z,7.40
2023-02-12T10:01:15.415Z,7.50
2023-02-12T10:06:06.216Z,7.50
2023-02-12T10:10:44.009Z,7.50
2023-02-12T10:15:19.678Z,7.40
2023-02-12T10:20:02.691Z,7.50
2023-02-12T10:24:53.399Z,7.50
2023-02-12T10:29:25.140Z,7.60
2023-02-12T10:33:49.697Z,7.60
2023-02-12T10:38:33.822Z,7.60
2023-02-12T10:42:58.221Z,7.50
2023-02-12T10:47:26.591Z,7.40
2023-02-12T10:52:19.922Z,7.40
2023-02-12T10:56:42.090Z,7.60
2023-02-12T11:01:05.255Z,7.60
2023-02-12T11:05:31.514Z,7.60
2023-02-12T11:09:56.269Z,7.80
2023-02-12T11:14:23.086Z,7.80
2023-02-12T11:18:45.271Z,7.90
2023-02-12T11:23:38.235Z,8.00
2023-02-12T11:28:01.714Z,8.10
2023-02-12T11:32:24.130Z,8.20
2023-02-12T11:36:54.297Z,8.20
2023-02-12T11:41:50.025Z,7.90
2023-02-12T11:46:22.436Z,7.70
2023-02-12T11:50:49.151Z,7.60
2023-02-12T11:55:31.026Z,7.60
2023-02-12T11:59:56.668Z,7.70
2023-02-12T12:04:23.245Z,7.80
2023-02-12T12:09:04.393Z,7.70
2023-02-12T12:13:37.610Z,7.70
2023-02-12T12:18:43.376Z,7.80
2023-02-12T12:23:20.703Z,7.70
2023-02-12T12:28:04.069Z,7.70
2023-02-12T12:32:29.757Z,7.70
2023-02-12T12:37:12.216Z,7.70
2023-02-12T12:41:58.766Z,7.60
2023-02-12T12:46:38.242Z,7.70
2023-02-12T12:51:35.347Z,7.70
2023-02-12T12:56:21.547Z,7.70
2023-02-12T13:01:08.225Z,7.90
2023-02-12T13:05:55.121Z,8.10
2023-02-12T13:10:50.884Z,8.30
2023-02-12T13:15:31.145Z,8.50
2023-02-12T13:20:14.350Z,9.00
2023-02-12T13:25:06.805Z,9.80
2023-02-12T13:29:37.297Z,10.20
2023-02-12T13:34:05.955Z,10.10
2023-02-12T13:38:40.768Z,9.90
2023-02-12T13:43:57.506Z,9.90
2023-02-12T13:48:36.257Z,9.80
2023-02-12T13:53:48.277Z,9.50
2023-02-12T13:58:37.689Z,9.30
2023-02-12T14:03:09.778Z,9.10
2023-02-12T14:07:52.522Z,8.90
2023-02-12T14:12:26.826Z,8.80
2023-02-12T14:16:49.916Z,8.80
2023-02-12T14:21:36.037Z,8.70
2023-02-12T14:26:00.851Z,8.70
2023-02-12T14:30:40.487Z,8.70
2023-02-12T14:35:42.445Z,8.70
2023-02-12T14:40:40.781Z,8.70
2023-02-12T14:46:16.149Z,8.60
2023-02-12T14:50:52.909Z,8.40
2023-02-12T14:55:30.855Z,8.20
2023-02-12T15:00:27.832Z,7.90
2023-02-12T15:04:52.946Z,7.70
2023-02-12T15:09:39.958Z,7.70
2023-02-12T15:14:13.190Z,7.70
2023-02-12T15:18:41.231Z,7.60
2023-02-12T15:23:24.094Z,7.60
2023-02-12T15:27:49.758Z,7.70
2023-02-12T15:32:29.870Z,7.70
2023-02-12T15:36:52.301Z,7.80
2023-02-12T15:41:39.794Z,7.80
2023-02-12T15:46:06.916Z,7.70
2023-02-12T15:50:31.485Z,7.50
2023-02-12T15:54:53.772Z,7.20
2023-02-12T15:59:29.081Z,7.10
2023-02-12T16:03:55.626Z,6.90
2023-02-12T16:08:22.160Z,6.80
2023-02-12T16:12:45.931Z,6.70
2023-02-12T16:17:25.761Z,6.70
2023-02-12T16:22:16.357Z,6.70
2023-02-12T16:26:38.515Z,6.70
2023-02-12T16:31:14.359Z,6.70
2023-02-12T16:35:36.291Z,6.70
2023-02-12T16:40:13.209Z,6.60
2023-02-12T16:44:35.111Z,6.60
2023-02-12T16:49:00.904Z,6.60
2023-02-12T16:53:34.071Z,6.60
2023-02-12T16:57:56.256Z,6.60
2023-02-12T17:02:18.155Z,6.60
2023-02-12T17:06:40.233Z,6.60
2023-02-12T17:11:02.114Z,6.60
2023-02-12T17:15:30.517Z,6.50
2023-02-12T17:19:53.445Z,6.50
2023-02-12T17:24:34.500Z,6.60
2023-02-12T17:29:07.342Z,6.60
2023-02-12T17:33:29.793Z,6.50
2023-02-12T17:37:51.828Z,6.50
2023-02-12T17:42:13.987Z,6.60
2023-02-12T17:46:36.298Z,6.50
2023-02-12T17:50:58.566Z,6.50
2023-02-12T17:55:20.815Z,6.40
2023-02-12T17:59:43.115Z,6.50
2023-02-12T18:04:05.608Z,6.50
2023-02-12T18:08:28.656Z,6.50
2023-02-12T18:12:50.926Z,6.50
2023-02-12T18:17:13.100Z,6.50
2023-02-12T18:21:35.363Z,6.60
2023-02-12T18:25:57.316Z,6.50
2023-02-12T18:30:19.701Z,6.50
2023-02-12T18:34:43.837Z,6.50
2023-02-12T18:39:06.060Z,6.50
2023-02-12T18:43:28.253Z,6.50
2023-02-12T18:47:50.255Z,6.40
2023-02-12T18:52:12.575Z,6.30
2023-02-12T18:56:40.179Z,6.40
2023-02-12T19:01:12.151Z,6.40
2023-02-12T19:05:34.354Z,6.40
2023-02-12T19:09:56.312Z,6.40
2023-02-12T19:14:20.897Z,6.40
2023-02-12T19:18:43.254Z,6.40
2023-02-12T19:23:06.302Z,6.40
2023-02-12T19:27:28.396Z,6.40
2023-02-12T19:31:50.458Z,6.40
2023-02-12T19:36:18.258Z,6.30
2023-02-12T19:40:40.814Z,6.40
2023-02-12T19:45:02.837Z,6.30
2023-02-12T19:49:28.169Z,6.20
2023-02-12T19:53:50.099Z,6.10
2023-02-12T19:58:12.568Z,6.10
2023-02-12T20:02:34.876Z,6.10
2023-02-12T20:06:57.276Z,6.10
2023-02-12T20:11:26.323Z,6.10
2023-02-12T20:15:48.295Z,6.10
2023-02-12T20:20:13.268Z,6.10
2023-02-12T20:24:35.734Z,6.10
2023-02-12T20:28:58.993Z,6.10
2023-02-12T20:33:21.790Z,6.10
2023-02-12T20:37:46.296Z,6.10
2023-02-12T20:42:08.279Z,6.00
2023-02-12T20:46:30.919Z,5.90
2023-02-12T20:50:52.974Z,5.90
2023-02-12T20:55:15.218Z,6.00
2023-02-12T20:59:37.393Z,6.00
2023-02-12T21:04:05.263Z,6.00
2023-02-12T21:08:27.607Z,6.00
2023-02-12T21:12:49.539Z,6.00
2023-02-12T21:17:11.460Z,6.00
2023-02-12T21:21:39.289Z,6.00
2023-02-12T21:26:06.982Z,6.00
2023-02-12T21:30:29.647Z,6.10
2023-02-12T21:34:52.808Z,6.00
2023-02-12T21:39:25.026Z,6.00
2023-02-12T21:43:51.724Z,6.00
2023-02-12T21:48:13.944Z,6.00
2023-02-12T21:52:36.003Z,6.00
2023-02-12T21:56:59.388Z,5.90
2023-02-12T22:01:28.162Z,5.90
2023-02-12T22:05:50.050Z,5.90
2023-02-12T22:10:12.126Z,5.80
2023-02-12T22:14:33.919Z,5.80
2023-02-12T22:19:00.536Z,5.80
2023-02-12T22:23:22.973Z,5.80
2023-02-12T22:27:45.100Z,5.70
2023-02-12T22:32:07.436Z,5.70
2023-02-12T22:36:30.712Z,5.70
2023-02-12T22:40:53.540Z,5.70
2023-02-12T22:45:16.011Z,5.60
2023-02-12T22:49:38.386Z,5.70
2023-02-12T22:54:01.512Z,5.70
2023-02-12T22:58:23.768Z,5.80
2023-02-12T23:02:45.823Z,5.80
2023-02-12T23:07:07.867Z,5.80
2023-02-12T23:11:31.770Z,5.80
2023-02-12T23:15:55.296Z,5.80
2023-02-12T23:20:17.771Z,5.80
2023-02-12T23:24:39.614Z,5.70
2023-02-12T23:29:01.628Z,5.80
2023-02-12T23:33:25.045Z,5.70
2023-02-12T23:37:46.878Z,5.70
2023-02-12T23:42:09.120Z,5.70
2023-02-12T23:46:31.448Z,5.70
2023-02-12T23:50:53.589Z,5.70
2023-02-12T23:55:18.258Z,5.70
2023-02-12T23:59:40.441Z,5.70
